createdAt,value
2022-10-06T00:00:06.305Z,7.18
2022-10-06T00:02:37.208Z,7.14
2022-10-06T00:05:05.656Z,7.05
2022-10-06T00:07:34.199Z,7.14
2022-10-06T00:10:02.714Z,7.10
2022-10-06T00:12:31.168Z,7.05
2022-10-06T00:14:59.629Z,6.99
2022-10-06T00:17:28.007Z,6.97
2022-10-06T00:19:56.417Z,6.94
2022-10-06T00:22:24.840Z,6.89
2022-10-06T00:24:53.433Z,6.96
2022-10-06T00:27:22.230Z,6.97
2022-10-06T00:29:50.683Z,6.94
2022-10-06T00:32:19.205Z,7.00
2022-10-06T00:34:47.781Z,7.02
2022-10-06T00:37:16.223Z,6.92
2022-10-06T00:39:44.874Z,6.91
2022-10-06T00:42:56.925Z,6.96
2022-10-06T00:45:35.419Z,6.93
2022-10-06T00:48:12.830Z,6.98
2022-10-06T00:50:42.720Z,6.96
2022-10-06T00:53:11.879Z,6.87
2022-10-06T00:55:40.461Z,6.91
2022-10-06T00:58:09.471Z,6.94
2022-10-06T01:00:38.238Z,6.93
2022-10-06T01:03:20.251Z,6.84
2022-10-06T01:05:51.719Z,6.86
2022-10-06T01:08:20.137Z,6.85
2022-10-06T01:10:48.696Z,6.78
2022-10-06T01:13:17.999Z,6.85
2022-10-06T01:15:54.972Z,6.77
2022-10-06T01:18:28.206Z,6.82
2022-10-06T01:21:14.182Z,6.73
2022-10-06T01:23:42.618Z,6.74
2022-10-06T01:26:13.534Z,6.75
2022-10-06T01:28:42.279Z,6.77
2022-10-06T01:31:11.441Z,6.71
2022-10-06T01:33:40.007Z,6.69
2022-10-06T01:36:09.029Z,6.68
2022-10-06T01:38:37.957Z,6.70
2022-10-06T01:41:06.729Z,6.68
2022-10-06T01:43:35.185Z,6.72
2022-10-06T01:46:03.867Z,6.76
2022-10-06T01:48:32.777Z,6.69
2022-10-06T01:51:01.415Z,6.68
2022-10-06T01:53:31.155Z,6.78
2022-10-06T01:56:01.233Z,6.73
2022-10-06T01:58:32.594Z,6.70
2022-10-06T02:01:06.339Z,6.68
2022-10-06T02:03:39.392Z,6.73
2022-10-06T02:06:09.165Z,6.77
2022-10-06T02:08:38.252Z,6.77
2022-10-06T02:11:10.372Z,6.81
2022-10-06T02:13:40.010Z,6.77
2022-10-06T02:16:09.816Z,6.77
2022-10-06T02:18:39.083Z,6.80
2022-10-06T02:21:08.448Z,6.77
2022-10-06T02:23:36.935Z,6.83
2022-10-06T02:26:07.506Z,6.88
2022-10-06T02:28:36.629Z,6.85
2022-10-06T02:31:07.682Z,6.86
2022-10-06T02:33:37.514Z,6.90
2022-10-06T02:36:07.978Z,6.89
2022-10-06T02:38:36.521Z,6.84
2022-10-06T02:41:05.357Z,6.81
2022-10-06T02:43:35.144Z,6.82
2022-10-06T02:46:06.497Z,6.85
2022-10-06T02:48:36.175Z,6.88
2022-10-06T02:51:09.465Z,6.83
2022-10-06T02:53:38.040Z,6.84
2022-10-06T02:56:08.933Z,6.85
2022-10-06T02:58:38.071Z,6.88
2022-10-06T03:01:07.521Z,6.91
2022-10-06T03:03:36.586Z,6.85
2022-10-06T03:06:32.297Z,6.92
2022-10-06T03:09:03.338Z,6.94
2022-10-06T03:11:34.595Z,6.88
2022-10-06T03:14:03.749Z,6.89
2022-10-06T03:16:40.825Z,6.92
2022-10-06T03:19:10.873Z,6.94
2022-10-06T03:21:42.594Z,6.93
2022-10-06T03:24:11.776Z,7.00
2022-10-06T03:26:45.665Z,6.95
2022-10-06T03:29:14.195Z,6.95
2022-10-06T03:31:42.639Z,6.91
2022-10-06T03:34:11.684Z,6.88
2022-10-06T03:36:40.877Z,6.86
2022-10-06T03:39:09.449Z,6.89
2022-10-06T03:41:39.497Z,6.94
2022-10-06T03:44:07.841Z,6.82
2022-10-06T03:46:37.613Z,6.85
2022-10-06T03:49:06.728Z,6.88
2022-10-06T03:51:40.685Z,6.88
2022-10-06T03:54:11.972Z,6.82
2022-10-06T03:56:42.433Z,6.83
2022-10-06T03:59:13.741Z,6.81
2022-10-06T04:01:45.750Z,6.83
2022-10-06T04:04:14.847Z,6.84
2022-10-06T04:06:45.474Z,6.82
2022-10-06T04:09:16.155Z,6.85
2022-10-06T04:11:46.079Z,6.82
2022-10-06T04:14:16.610Z,6.87
2022-10-06T04:16:50.723Z,6.79
2022-10-06T04:19:22.823Z,6.81
2022-10-06T04:21:51.663Z,6.80
2022-10-06T04:24:20.262Z,6.82
2022-10-06T04:26:50.230Z,6.77
2022-10-06T04:29:18.835Z,6.82
2022-10-06T04:31:48.255Z,6.81
2022-10-06T04:34:16.776Z,6.76
2022-10-06T04:36:45.371Z,6.76
2022-10-06T04:39:14.217Z,6.82
2022-10-06T04:41:43.907Z,6.80
2022-10-06T04:44:12.413Z,6.77
2022-10-06T04:46:43.727Z,6.83
2022-10-06T04:49:19.154Z,6.81
2022-10-06T04:51:50.658Z,6.80
2022-10-06T04:54:20.142Z,6.81
2022-10-06T04:56:48.217Z,6.85
2022-10-06T04:59:16.781Z,6.88
2022-10-06T05:01:45.396Z,6.94
2022-10-06T05:04:13.996Z,6.88
2022-10-06T05:06:43.994Z,6.90
2022-10-06T05:09:18.331Z,6.86
2022-10-06T05:11:46.950Z,6.84
2022-10-06T05:14:15.459Z,6.84
2022-10-06T05:16:44.318Z,6.88
2022-10-06T05:19:13.025Z,6.88
2022-10-06T05:21:41.301Z,6.89
2022-10-06T05:24:09.988Z,6.86
2022-10-06T05:26:38.381Z,6.87
2022-10-06T05:29:06.979Z,6.86
2022-10-06T05:31:41.388Z,6.87
2022-10-06T05:34:10.496Z,6.90
2022-10-06T05:36:39.001Z,6.89
2022-10-06T05:39:07.619Z,6.89
2022-10-06T05:41:38.662Z,6.89
2022-10-06T05:44:07.392Z,6.88
2022-10-06T05:46:36.518Z,6.88
2022-10-06T05:49:16.624Z,6.89
2022-10-06T05:51:45.085Z,6.88
2022-10-06T05:54:15.228Z,6.90
2022-10-06T05:56:43.775Z,6.91
2022-10-06T05:59:12.770Z,6.94
2022-10-06T06:01:43.054Z,6.95
2022-10-06T06:04:14.270Z,6.96
2022-10-06T06:06:45.313Z,6.95
2022-10-06T06:09:16.228Z,6.95
2022-10-06T06:11:50.015Z,7.00
2022-10-06T06:14:41.249Z,7.03
2022-10-06T06:17:09.570Z,7.03
2022-10-06T06:19:38.057Z,7.07
2022-10-06T06:22:06.619Z,7.03
2022-10-06T06:24:35.084Z,6.99
2022-10-06T06:27:03.615Z,6.99
2022-10-06T06:29:35.168Z,7.02
2022-10-06T06:32:03.715Z,7.00
2022-10-06T06:34:32.078Z,7.06
2022-10-06T06:37:06.738Z,7.07
2022-10-06T06:39:37.437Z,7.04
2022-10-06T06:42:06.501Z,7.09
2022-10-06T06:44:36.005Z,7.09
2022-10-06T06:47:04.571Z,7.06
2022-10-06T06:49:33.084Z,7.09
2022-10-06T06:52:01.515Z,7.11
2022-10-06T06:54:29.948Z,7.10
2022-10-06T06:56:59.049Z,7.14
2022-10-06T06:59:27.666Z,7.06
2022-10-06T07:01:56.137Z,7.09
2022-10-06T07:04:24.724Z,7.15
2022-10-06T07:06:59.665Z,7.15
2022-10-06T07:09:28.326Z,7.09
2022-10-06T07:11:56.829Z,7.06
2022-10-06T07:14:25.673Z,7.03
2022-10-06T07:17:12.588Z,7.07
2022-10-06T07:19:44.482Z,7.04
2022-10-06T07:22:31.690Z,6.99
2022-10-06T07:25:07.868Z,6.98
2022-10-06T07:27:45.246Z,6.99
2022-10-06T07:30:20.193Z,6.93
2022-10-06T07:32:51.560Z,6.89
2022-10-06T07:35:22.243Z,6.87
2022-10-06T07:37:51.867Z,6.84
2022-10-06T07:40:20.573Z,6.81
2022-10-06T07:42:55.355Z,6.80
2022-10-06T07:45:42.672Z,6.83
2022-10-06T07:48:24.484Z,6.85
2022-10-06T07:50:54.086Z,6.87
2022-10-06T07:53:29.478Z,6.86
2022-10-06T07:56:08.036Z,6.88
2022-10-06T07:58:38.684Z,6.89
2022-10-06T08:01:14.558Z,6.85
2022-10-06T08:03:45.024Z,6.80
2022-10-06T08:06:16.998Z,6.82
2022-10-06T08:08:52.452Z,6.80
2022-10-06T08:11:22.859Z,6.78
2022-10-06T08:13:52.774Z,6.73
2022-10-06T08:16:24.272Z,6.74
2022-10-06T08:18:54.948Z,6.72
2022-10-06T08:21:27.576Z,6.73
2022-10-06T08:23:57.972Z,6.71
2022-10-06T08:26:28.289Z,6.71
2022-10-06T08:29:04.283Z,6.68
2022-10-06T08:31:33.096Z,6.64
2022-10-06T08:34:02.649Z,6.57
2022-10-06T08:36:32.787Z,6.56
2022-10-06T08:39:01.865Z,6.53
2022-10-06T08:41:41.010Z,6.48
2022-10-06T08:44:26.699Z,6.44
2022-10-06T08:46:58.055Z,6.45
2022-10-06T08:49:28.839Z,6.43
2022-10-06T08:52:28.289Z,6.39
2022-10-06T08:55:02.989Z,6.36
2022-10-06T08:57:34.284Z,6.34
2022-10-06T09:00:04.449Z,6.31
2022-10-06T09:02:44.085Z,6.29
2022-10-06T09:05:20.517Z,6.28
2022-10-06T09:08:06.688Z,6.26
2022-10-06T09:10:43.326Z,6.25
2022-10-06T09:13:21.773Z,6.24
2022-10-06T09:16:10.763Z,6.24
2022-10-06T09:19:07.584Z,6.27
2022-10-06T09:21:50.658Z,6.28
2022-10-06T09:24:32.191Z,6.33
2022-10-06T09:27:01.416Z,6.34
2022-10-06T09:29:32.578Z,6.33
2022-10-06T09:32:01.063Z,6.35
2022-10-06T09:34:58.383Z,6.40
2022-10-06T09:37:27.711Z,6.43
2022-10-06T09:39:56.721Z,6.44
2022-10-06T09:42:30.721Z,6.47
2022-10-06T09:45:08.931Z,6.50
2022-10-06T09:47:46.098Z,6.51
2022-10-06T09:50:23.041Z,6.56
2022-10-06T09:53:04.705Z,6.57
2022-10-06T09:55:38.519Z,6.57
2022-10-06T09:58:30.909Z,6.56
2022-10-06T10:01:02.080Z,6.58
2022-10-06T10:04:19.499Z,6.55
2022-10-06T10:06:49.381Z,6.57
2022-10-06T10:09:28.946Z,6.60
2022-10-06T10:12:32.577Z,6.55
2022-10-06T10:15:25.898Z,6.51
2022-10-06T10:18:06.948Z,6.52
2022-10-06T10:20:41.785Z,6.50
2022-10-06T10:23:40.194Z,6.48
2022-10-06T10:26:36.933Z,6.52
2022-10-06T10:29:33.359Z,6.50
2022-10-06T10:32:09.167Z,6.50
2022-10-06T10:34:57.668Z,6.47
2022-10-06T10:37:49.596Z,6.53
2022-10-06T10:40:27.362Z,6.52
2022-10-06T10:43:17.025Z,6.51
2022-10-06T10:46:03.407Z,6.52
2022-10-06T10:48:50.742Z,6.53
2022-10-06T10:51:26.757Z,6.48
2022-10-06T10:54:26.431Z,6.52
2022-10-06T10:56:55.619Z,6.50
2022-10-06T10:59:37.479Z,6.50
2022-10-06T11:02:18.477Z,6.43
2022-10-06T11:04:50.851Z,6.42
2022-10-06T11:07:28.258Z,6.40
2022-10-06T11:10:27.138Z,6.39
2022-10-06T11:13:20.568Z,6.36
2022-10-06T11:15:49.219Z,6.37
2022-10-06T11:18:33.441Z,6.34
2022-10-06T11:21:19.080Z,6.28
2022-10-06T11:24:16.938Z,6.20
2022-10-06T11:27:09.240Z,6.17
2022-10-06T11:29:50.171Z,6.11
2022-10-06T11:33:02.627Z,6.03
2022-10-06T11:35:36.624Z,5.95
2022-10-06T11:38:44.030Z,5.90
2022-10-06T11:41:27.624Z,5.84
2022-10-06T11:44:25.053Z,5.78
2022-10-06T11:46:59.327Z,5.73
2022-10-06T11:49:30.342Z,5.68
2022-10-06T11:52:08.644Z,5.63
2022-10-06T11:54:49.164Z,5.63
2022-10-06T11:57:31.344Z,5.58
2022-10-06T12:00:06.079Z,5.53
2022-10-06T12:02:34.577Z,5.54
2022-10-06T12:05:37.400Z,5.46
2022-10-06T12:08:00.517Z,5.46
2022-10-06T12:10:33.441Z,5.44
2022-10-06T12:13:21.289Z,5.43
2022-10-06T12:19:44.091Z,5.34
2022-10-06T12:22:34.014Z,5.33
2022-10-06T12:25:07.435Z,5.32
2022-10-06T12:27:54.189Z,5.31
2022-10-06T12:30:34.573Z,5.28
2022-10-06T12:33:07.010Z,5.25
2022-10-06T12:35:38.314Z,5.27
2022-10-06T12:38:27.516Z,5.25
2022-10-06T12:40:58.953Z,5.23
2022-10-06T12:43:29.280Z,5.21
2022-10-06T12:45:57.894Z,5.15
2022-10-06T12:48:48.849Z,5.12
2022-10-06T12:54:11.791Z,5.15
2022-10-06T12:56:42.622Z,5.12
2022-10-06T12:59:33.769Z,5.06
2022-10-06T13:02:23.560Z,5.03
2022-10-06T13:05:03.718Z,5.04
2022-10-06T13:07:36.124Z,4.97
2022-10-06T13:10:16.644Z,4.97
2022-10-06T13:12:48.433Z,4.93
2022-10-06T13:15:24.708Z,4.84
2022-10-06T13:18:09.314Z,4.84
2022-10-06T13:20:58.562Z,4.79
2022-10-06T13:23:35.407Z,4.70
2022-10-06T13:26:05.921Z,4.70
2022-10-06T13:28:49.790Z,4.66
2022-10-06T13:31:33.925Z,4.63
2022-10-06T13:34:07.087Z,4.65
2022-10-06T13:36:39.970Z,4.61
2022-10-06T13:39:12.385Z,4.57
2022-10-06T13:41:51.655Z,4.56
2022-10-06T13:44:20.168Z,4.53
2022-10-06T13:47:01.088Z,4.52
2022-10-06T13:49:52.835Z,4.52
2022-10-06T13:52:26.439Z,4.45
2022-10-06T13:55:01.921Z,4.45
2022-10-06T13:57:42.099Z,4.43
2022-10-06T14:00:24.934Z,4.42
2022-10-06T14:03:10.986Z,4.42
2022-10-06T14:05:44.063Z,4.40
2022-10-06T14:08:12.539Z,4.41
2022-10-06T14:10:51.820Z,4.40
2022-10-06T14:13:23.440Z,4.42
2022-10-06T14:15:52.089Z,4.39
2022-10-06T14:18:31.728Z,4.45
2022-10-06T14:21:00.800Z,4.45
2022-10-06T14:23:54.149Z,4.47
2022-10-06T14:26:31.486Z,4.50
2022-10-06T14:29:00.613Z,4.56
2022-10-06T14:31:30.123Z,4.60
2022-10-06T14:34:02.274Z,4.60
2022-10-06T14:36:37.385Z,4.68
2022-10-06T14:39:07.241Z,4.70
2022-10-06T14:41:36.215Z,4.79
2022-10-06T14:44:09.922Z,4.84
2022-10-06T14:46:39.669Z,4.90
2022-10-06T14:49:09.984Z,4.97
2022-10-06T14:51:39.369Z,5.03
2022-10-06T14:54:09.192Z,5.09
2022-10-06T14:56:40.086Z,5.14
2022-10-06T14:59:10.795Z,5.22
2022-10-06T15:01:41.636Z,5.28
2022-10-06T15:04:15.629Z,5.36
2022-10-06T15:07:03.023Z,5.42
2022-10-06T15:09:31.538Z,5.49
2022-10-06T15:12:00.994Z,5.60
2022-10-06T15:14:30.893Z,5.65
2022-10-06T15:17:02.875Z,5.68
2022-10-06T15:19:31.494Z,5.73
2022-10-06T15:22:00.311Z,5.85
2022-10-06T15:24:28.826Z,5.96
2022-10-06T15:27:15.393Z,6.01
2022-10-06T15:29:43.837Z,6.03
2022-10-06T15:32:12.302Z,6.10
2022-10-06T15:34:40.863Z,6.21
2022-10-06T15:37:09.367Z,6.24
2022-10-06T15:39:39.104Z,6.33
2022-10-06T15:42:08.940Z,6.40
2022-10-06T15:44:37.636Z,6.44
2022-10-06T15:47:07.390Z,6.50
2022-10-06T15:49:39.681Z,6.55
2022-10-06T15:52:08.521Z,6.61
2022-10-06T15:54:39.959Z,6.66
2022-10-06T15:57:13.047Z,6.71
2022-10-06T15:59:45.415Z,6.78
2022-10-06T16:02:18.271Z,6.84
2022-10-06T16:05:10.312Z,6.91
2022-10-06T16:07:38.757Z,7.00
2022-10-06T16:10:07.967Z,6.99
2022-10-06T16:12:36.440Z,7.10
2022-10-06T16:15:04.797Z,7.21
2022-10-06T16:17:33.294Z,7.32
2022-10-06T16:20:01.904Z,7.40
2022-10-06T16:22:31.255Z,7.48
2022-10-06T16:24:59.710Z,7.55
2022-10-06T16:27:33.194Z,7.61
2022-10-06T16:30:02.049Z,7.74
2022-10-06T16:32:30.557Z,7.78
2022-10-06T16:34:59.023Z,7.88
2022-10-06T16:37:27.520Z,7.95
2022-10-06T16:39:56.039Z,8.09
2022-10-06T16:42:25.181Z,8.19
2022-10-06T16:44:53.759Z,8.38
2022-10-06T16:47:22.275Z,8.44
2022-10-06T16:49:50.757Z,8.55
2022-10-06T16:52:19.323Z,8.66
2022-10-06T16:54:47.856Z,8.74
2022-10-06T16:57:16.347Z,9.04
2022-10-06T16:59:46.990Z,9.15
2022-10-06T17:02:15.845Z,9.32
2022-10-06T17:04:44.432Z,9.51
2022-10-06T17:07:12.934Z,10.13
2022-10-06T17:09:51.136Z,10.36
2022-10-06T17:12:29.967Z,10.37
2022-10-06T17:14:58.592Z,10.56
2022-10-06T17:17:27.168Z,10.64
2022-10-06T17:19:56.057Z,10.91
2022-10-06T17:22:24.549Z,11.27
2022-10-06T17:24:53.152Z,11.54
2022-10-06T17:27:21.917Z,11.65
2022-10-06T17:29:50.465Z,11.59
2022-10-06T17:32:19.325Z,11.92
2022-10-06T17:34:47.332Z,11.68
2022-10-06T17:37:15.452Z,12.12
2022-10-06T17:39:47.008Z,11.99
2022-10-06T17:42:16.227Z,12.09
2022-10-06T17:44:44.744Z,12.16
2022-10-06T17:47:13.822Z,11.88
2022-10-06T17:49:42.405Z,11.62
2022-10-06T17:52:10.915Z,11.99
2022-10-06T17:54:39.365Z,12.09
2022-10-06T17:57:07.932Z,12.12
2022-10-06T17:59:36.374Z,12.27
2022-10-06T18:02:04.940Z,12.36
2022-10-06T18:04:35.138Z,12.29
2022-10-06T18:07:06.121Z,12.22
2022-10-06T18:09:34.689Z,12.24
2022-10-06T18:12:04.038Z,12.36
2022-10-06T18:14:34.640Z,12.59
2022-10-06T18:17:04.998Z,12.69
2022-10-06T18:19:37.762Z,12.75
2022-10-06T18:22:13.030Z,12.71
2022-10-06T18:24:41.830Z,12.77
2022-10-06T18:27:10.668Z,12.81
2022-10-06T18:29:40.296Z,12.66
2022-10-06T18:33:19.364Z,12.68
2022-10-06T18:36:10.739Z,13.03
2022-10-06T18:37:47.046Z,12.90
2022-10-06T18:40:16.170Z,12.87
2022-10-06T18:42:44.687Z,12.87
2022-10-06T18:45:36.765Z,13.11
2022-10-06T18:48:30.739Z,13.01
2022-10-06T18:51:05.540Z,12.98
2022-10-06T18:53:34.282Z,12.80
2022-10-06T18:56:02.793Z,13.05
2022-10-06T18:58:31.353Z,13.18
2022-10-06T19:01:05.707Z,13.18
2022-10-06T19:03:34.659Z,13.18
2022-10-06T19:06:03.036Z,13.33
2022-10-06T19:08:31.511Z,13.25
2022-10-06T19:11:26.278Z,13.21
2022-10-06T19:13:55.131Z,13.44
2022-10-06T19:16:23.649Z,13.54
2022-10-06T19:18:52.301Z,13.58
2022-10-06T19:21:20.970Z,12.60
2022-10-06T19:23:51.586Z,13.12
2022-10-06T19:26:24.017Z,13.25
2022-10-06T19:28:52.448Z,13.26
2022-10-06T19:31:21.980Z,13.17
2022-10-06T19:33:51.081Z,13.38
2022-10-06T19:36:19.896Z,12.88
2022-10-06T19:38:48.382Z,13.30
2022-10-06T19:41:35.052Z,13.51
2022-10-06T19:44:04.642Z,13.46
2022-10-06T19:46:33.122Z,13.59
2022-10-06T19:49:06.864Z,13.49
2022-10-06T19:51:36.454Z,13.50
2022-10-06T19:54:06.016Z,13.42
2022-10-06T19:56:34.379Z,13.40
2022-10-06T19:59:04.268Z,13.44
2022-10-06T20:01:33.925Z,13.49
2022-10-06T20:04:05.051Z,13.42
2022-10-06T20:06:36.231Z,13.33
2022-10-06T20:09:10.213Z,13.33
2022-10-06T20:11:41.984Z,13.32
2022-10-06T20:14:17.044Z,13.40
2022-10-06T20:16:51.869Z,13.44
2022-10-06T20:19:21.777Z,13.37
2022-10-06T20:21:50.373Z,13.16
2022-10-06T20:24:23.788Z,13.40
2022-10-06T20:26:54.289Z,13.45
2022-10-06T20:29:26.084Z,13.45
2022-10-06T20:31:56.420Z,13.61
2022-10-06T20:34:26.770Z,13.59
2022-10-06T20:36:56.284Z,13.84
2022-10-06T20:39:43.523Z,13.94
2022-10-06T20:42:14.876Z,14.02
2022-10-06T20:44:44.678Z,13.97
2022-10-06T20:47:14.263Z,13.90
2022-10-06T20:49:45.801Z,14.04
2022-10-06T20:52:16.953Z,14.00
2022-10-06T20:54:45.444Z,13.99
2022-10-06T20:57:14.307Z,14.01
2022-10-06T20:59:43.012Z,13.96
2022-10-06T21:02:12.226Z,14.09
2022-10-06T21:04:44.712Z,14.04
2022-10-06T21:07:13.049Z,14.02
2022-10-06T21:09:41.602Z,13.80
2022-10-06T21:12:10.085Z,13.28
2022-10-06T21:14:38.899Z,13.55
2022-10-06T21:17:07.925Z,13.48
2022-10-06T21:19:38.894Z,13.94
2022-10-06T21:22:07.796Z,13.68
2022-10-06T21:24:36.267Z,13.95
2022-10-06T21:27:04.928Z,14.14
2022-10-06T21:29:33.465Z,13.65
2022-10-06T21:32:02.550Z,13.89
2022-10-06T21:34:31.036Z,13.80
2022-10-06T21:36:59.525Z,13.75
2022-10-06T21:39:28.012Z,13.84
2022-10-06T21:41:56.439Z,13.61
2022-10-06T21:44:24.987Z,13.95
2022-10-06T21:46:55.892Z,13.61
2022-10-06T21:49:26.378Z,13.59
2022-10-06T21:51:57.345Z,13.60
2022-10-06T21:54:26.136Z,13.67
2022-10-06T21:56:54.496Z,13.84
2022-10-06T21:59:22.935Z,13.82
2022-10-06T22:01:52.016Z,13.82
2022-10-06T22:04:20.507Z,14.00
2022-10-06T22:06:51.621Z,13.65
2022-10-06T22:09:21.621Z,13.59
2022-10-06T22:11:50.862Z,13.86
2022-10-06T22:14:21.271Z,13.94
2022-10-06T22:16:49.850Z,13.94
2022-10-06T22:19:19.037Z,14.09
2022-10-06T22:21:49.855Z,13.83
2022-10-06T22:24:21.983Z,14.09
2022-10-06T22:26:51.292Z,13.77
2022-10-06T22:29:22.790Z,14.01
2022-10-06T22:31:51.497Z,14.19
2022-10-06T22:34:21.950Z,14.17
2022-10-06T22:36:50.662Z,14.15
2022-10-06T22:39:19.299Z,14.06
2022-10-06T22:41:48.013Z,13.87
2022-10-06T22:44:16.521Z,13.89
2022-10-06T22:46:45.250Z,13.94
2022-10-06T22:49:13.827Z,14.00
2022-10-06T22:51:42.303Z,14.02
2022-10-06T22:54:18.876Z,13.86
2022-10-06T22:56:47.453Z,13.86
2022-10-06T22:59:15.938Z,13.94
2022-10-06T23:01:44.412Z,13.90
2022-10-06T23:04:12.828Z,14.00
2022-10-06T23:06:40.986Z,14.04
2022-10-06T23:09:09.463Z,14.00
2022-10-06T23:11:37.920Z,13.90
2022-10-06T23:14:06.359Z,14.03
2022-10-06T23:16:35.011Z,13.92
2022-10-06T23:19:03.705Z,13.95
2022-10-06T23:21:33.472Z,13.85
2022-10-06T23:24:02.389Z,13.92
2022-10-06T23:26:30.924Z,13.81
2022-10-06T23:29:01.859Z,13.78
2022-10-06T23:31:31.443Z,13.82
2022-10-06T23:33:59.966Z,13.70
2022-10-06T23:36:28.414Z,13.69
2022-10-06T23:38:57.176Z,13.72
2022-10-06T23:41:25.633Z,13.66
2022-10-06T23:43:54.107Z,13.56
2022-10-06T23:46:22.762Z,13.49
2022-10-06T23:48:51.302Z,13.60
2022-10-06T23:51:19.800Z,13.65
2022-10-06T23:53:48.584Z,13.50
2022-10-06T23:56:17.515Z,13.29
2022-10-06T23:58:45.976Z,13.19
